createdAt,value
2022-07-31T01:33:05.869Z,100614.16
2022-07-31T01:35:42.036Z,100620.31
2022-07-31T01:38:42.442Z,100623.75
2022-07-31T01:41:19.121Z,100625.22
2022-07-31T01:43:52.974Z,100630.09
2022-07-31T01:46:25.638Z,100632.50
2022-07-31T01:48:58.545Z,100633.66
2022-07-31T01:51:30.070Z,100635.47
2022-07-31T01:54:02.670Z,100641.47
2022-07-31T01:56:34.598Z,100645.72
2022-07-31T01:59:20.596Z,100645.72
2022-07-31T02:02:11.408Z,100652.84
2022-07-31T02:04:42.443Z,100653.50
2022-07-31T02:07:13.358Z,100655.94
2022-07-31T02:09:52.392Z,100658.19
2022-07-31T02:12:34.101Z,100656.41
2022-07-31T02:15:09.505Z,100660.16
2022-07-31T02:17:44.180Z,100663.56
2022-07-31T02:20:28.055Z,100663.56
2022-07-31T02:23:01.061Z,100663.84
2022-07-31T02:25:34.227Z,100663.84
2022-07-31T02:28:12.766Z,100673.78
2022-07-31T02:30:46.370Z,100671.69
2022-07-31T02:33:22.569Z,100666.16
2022-07-31T02:35:57.715Z,100668.59
2022-07-31T02:38:30.628Z,100668.44
2022-07-31T02:41:05.955Z,100666.47
2022-07-31T02:43:38.465Z,100666.63
2022-07-31T02:46:19.582Z,100665.78
2022-07-31T02:48:51.657Z,100664.16
2022-07-31T02:51:24.445Z,100670.63
2022-07-31T02:53:56.772Z,100674.72
2022-07-31T02:56:32.145Z,100673.88
2022-07-31T02:59:03.149Z,100677.97
2022-07-31T03:01:46.364Z,100679.59
2022-07-31T03:04:16.856Z,100690.13
2022-07-31T03:06:47.286Z,100681.47
2022-07-31T03:09:18.385Z,100682.78
2022-07-31T03:11:51.646Z,100677.09
2022-07-31T03:14:24.110Z,100681.97
2022-07-31T03:16:56.272Z,100677.44
2022-07-31T03:19:27.918Z,100674.81
2022-07-31T03:21:59.144Z,100676.91
2022-07-31T03:24:30.069Z,100673.41
2022-07-31T03:27:02.392Z,100677.41
2022-07-31T03:29:43.856Z,100680.56
2022-07-31T03:32:14.704Z,100674.72
2022-07-31T03:34:44.881Z,100666.22
2022-07-31T03:37:16.591Z,100664.81
2022-07-31T03:39:46.832Z,100668.38
2022-07-31T03:42:19.031Z,100662.09
2022-07-31T03:44:50.873Z,100665.59
2022-07-31T03:47:21.267Z,100657.16
2022-07-31T03:49:52.262Z,100663.03
2022-07-31T03:52:22.989Z,100662.22
2022-07-31T03:54:54.189Z,100661.69
2022-07-31T03:57:27.084Z,100663.63
2022-07-31T04:00:03.072Z,100653.34
2022-07-31T04:02:35.663Z,100646.19
2022-07-31T04:05:26.039Z,100652.97
2022-07-31T04:07:55.978Z,100648.13
2022-07-31T04:10:26.179Z,100642.38
2022-07-31T04:12:56.427Z,100644.81
2022-07-31T04:15:27.451Z,100642.66
2022-07-31T04:17:58.520Z,100640.25
2022-07-31T04:20:37.086Z,100628.34
2022-07-31T04:23:07.658Z,100628.50
2022-07-31T04:25:55.851Z,100637.69
2022-07-31T04:28:33.446Z,100639.81
2022-07-31T04:31:03.914Z,100641.44
2022-07-31T04:33:47.379Z,100635.34
2022-07-31T04:36:29.721Z,100636.97
2022-07-31T04:39:03.667Z,100630.22
2022-07-31T04:41:34.499Z,100633.31
2022-07-31T04:44:04.737Z,100630.66
2022-07-31T04:46:52.216Z,100630.53
2022-07-31T04:49:22.621Z,100622.84
2022-07-31T04:51:53.308Z,100622.72
2022-07-31T04:54:24.418Z,100604.59
2022-07-31T04:56:55.033Z,100601.16
2022-07-31T04:59:57.928Z,100596.63
2022-07-31T05:02:16.190Z,100585.91
2022-07-31T05:04:47.111Z,100574.94
2022-07-31T05:07:29.248Z,100566.06
2022-07-31T05:10:01.227Z,100565.06
2022-07-31T05:12:33.819Z,100552.44
2022-07-31T05:15:22.792Z,100549.09
2022-07-31T05:17:53.766Z,100542.84
2022-07-31T05:20:42.360Z,100536.03
2022-07-31T05:23:31.038Z,100538.28
2022-07-31T05:26:10.431Z,100543.94
2022-07-31T05:28:41.343Z,100544.19
2022-07-31T05:31:13.620Z,100535.97
2022-07-31T05:33:44.243Z,100537.22
2022-07-31T05:36:16.095Z,100538.53
2022-07-31T05:38:47.661Z,100534.53
2022-07-31T05:41:36.332Z,100531.78
2022-07-31T05:44:25.142Z,100516.56
2022-07-31T05:49:24.459Z,100511.41
2022-07-31T05:51:58.863Z,100496.28
2022-07-31T05:54:29.108Z,100484.97
2022-07-31T05:57:26.439Z,100476.06
2022-07-31T06:00:07.800Z,100467.66
2022-07-31T06:02:44.866Z,100459.66
2022-07-31T06:05:47.444Z,100457.91
2022-07-31T06:08:17.606Z,100459.66
2022-07-31T06:10:50.832Z,100450.97
2022-07-31T06:13:21.612Z,100436.22
2022-07-31T06:15:51.736Z,100432.50
2022-07-31T06:18:22.346Z,100422.81
2022-07-31T06:20:53.212Z,100431.63
2022-07-31T06:23:29.819Z,100433.22
2022-07-31T06:26:26.126Z,100432.88
2022-07-31T06:28:57.880Z,100426.28
2022-07-31T06:31:28.289Z,100421.19
2022-07-31T06:34:26.017Z,100415.31
2022-07-31T06:36:56.900Z,100416.22
2022-07-31T06:39:53.950Z,100410.34
2022-07-31T06:42:36.139Z,100397.97
2022-07-31T06:45:10.105Z,100394.28
2022-07-31T06:48:17.743Z,100400.53
2022-07-31T06:51:14.462Z,100401.31
2022-07-31T06:53:50.194Z,100395.44
2022-07-31T06:56:20.527Z,100394.75
2022-07-31T06:58:50.821Z,100388.41
2022-07-31T07:01:21.096Z,100383.06
2022-07-31T07:03:51.612Z,100373.50
2022-07-31T07:06:21.913Z,100373.59
2022-07-31T07:08:52.664Z,100358.50
2022-07-31T07:11:25.183Z,100354.34
2022-07-31T07:13:55.381Z,100354.25
2022-07-31T07:16:25.710Z,100337.75
2022-07-31T07:18:56.300Z,100328.28
2022-07-31T07:21:26.830Z,100324.03
2022-07-31T07:23:57.240Z,100324.25
2022-07-31T07:26:39.564Z,100322.66
2022-07-31T07:29:12.734Z,100320.34
2022-07-31T07:31:44.061Z,100310.50
2022-07-31T07:34:15.306Z,100307.38
2022-07-31T07:36:45.445Z,100301.06
2022-07-31T07:39:23.648Z,100288.69
2022-07-31T07:41:55.611Z,100293.44
2022-07-31T07:44:26.102Z,100293.78
2022-07-31T07:46:56.263Z,100283.41
2022-07-31T07:49:26.680Z,100280.63
2022-07-31T07:52:20.176Z,100287.66
2022-07-31T07:55:07.745Z,100285.25
2022-07-31T07:58:00.947Z,100291.94
2022-07-31T08:00:31.129Z,100293.56
2022-07-31T08:03:48.261Z,100294.03
2022-07-31T08:05:55.674Z,100288.59
2022-07-31T08:08:25.929Z,100286.94
2022-07-31T08:11:34.628Z,100284.06
2022-07-31T08:14:15.242Z,100280.25
2022-07-31T08:17:04.260Z,100280.69
2022-07-31T08:19:34.535Z,100275.84
2022-07-31T08:22:05.095Z,100265.59
2022-07-31T08:24:35.475Z,100256.03
2022-07-31T08:27:23.848Z,100254.41
2022-07-31T08:30:10.868Z,100242.31
2022-07-31T08:32:41.073Z,100240.44
2022-07-31T08:35:26.207Z,100234.78
2022-07-31T08:38:03.347Z,100223.72
2022-07-31T08:40:42.970Z,100222.09
2022-07-31T08:46:07.271Z,100224.53
2022-07-31T08:48:43.381Z,100227.31
2022-07-31T08:51:18.617Z,100225.69
2022-07-31T08:54:11.876Z,100223.25
2022-07-31T08:56:42.857Z,100219.88
2022-07-31T08:59:13.829Z,100222.31
2022-07-31T09:01:44.172Z,100220.72
2022-07-31T09:04:14.825Z,100222.19
2022-07-31T09:06:45.217Z,100212.72
2022-07-31T09:09:17.721Z,100205.69
2022-07-31T09:11:53.044Z,100202.38
2022-07-31T09:14:42.311Z,100206.41
2022-07-31T09:17:17.515Z,100210.22
2022-07-31T09:19:52.689Z,100213.69
2022-07-31T09:22:34.101Z,100210.56
2022-07-31T09:25:18.243Z,100210.22
2022-07-31T09:27:50.463Z,100203.88
2022-07-31T09:30:21.188Z,100204.56
2022-07-31T09:33:23.986Z,100208.63
2022-07-31T09:36:03.524Z,100215.63
2022-07-31T09:38:43.345Z,100210.91
2022-07-31T09:41:57.934Z,100211.28
2022-07-31T09:44:42.337Z,100222.22
2022-07-31T09:47:34.255Z,100215.06
2022-07-31T09:50:08.930Z,100215.41
2022-07-31T09:52:39.276Z,100204.22
2022-07-31T09:55:16.044Z,100252.69
2022-07-31T09:57:56.901Z,100309.00
2022-07-31T10:00:30.592Z,100356.69
2022-07-31T10:03:02.517Z,100382.97
2022-07-31T10:05:34.167Z,100424.53
2022-07-31T10:08:06.818Z,100434.28
2022-07-31T10:11:00.057Z,100445.00
2022-07-31T10:13:47.362Z,100459.78
2022-07-31T10:16:18.641Z,100475.69
2022-07-31T10:19:13.588Z,100496.56
2022-07-31T10:22:07.370Z,100484.75
2022-07-31T10:24:47.590Z,100455.56
2022-07-31T10:27:21.704Z,100436.72
2022-07-31T10:30:01.094Z,100397.16
2022-07-31T10:32:31.730Z,100386.16
2022-07-31T10:35:20.522Z,100379.00
2022-07-31T10:38:21.357Z,100374.28
2022-07-31T10:41:34.314Z,100381.44
2022-07-31T10:44:22.313Z,100363.75
2022-07-31T10:47:17.314Z,100350.78
2022-07-31T10:50:23.297Z,100368.81
2022-07-31T10:53:19.436Z,100376.59
2022-07-31T10:56:13.782Z,100399.28
2022-07-31T10:59:10.558Z,100406.75
2022-07-31T11:01:59.304Z,100389.72
2022-07-31T11:04:48.268Z,100355.66
2022-07-31T11:07:38.573Z,100326.31
2022-07-31T11:10:17.107Z,100327.47
2022-07-31T11:13:15.421Z,100335.72
2022-07-31T11:15:49.046Z,100353.69
2022-07-31T11:18:37.538Z,100369.28
2022-07-31T11:21:37.234Z,100397.69
2022-07-31T11:24:04.119Z,100444.88
2022-07-31T11:26:41.696Z,100469.19
2022-07-31T11:30:01.808Z,100477.47
2022-07-31T11:32:17.235Z,100472.91
2022-07-31T11:34:57.327Z,100479.06
2022-07-31T11:37:46.093Z,100481.97
2022-07-31T11:40:27.483Z,100495.13
2022-07-31T11:43:27.203Z,100510.03
2022-07-31T11:45:51.981Z,100521.09
2022-07-31T11:48:27.229Z,100533.41
2022-07-31T11:50:58.431Z,100549.97
2022-07-31T11:53:29.292Z,100556.25
2022-07-31T11:56:03.933Z,100560.06
2022-07-31T11:58:34.080Z,100569.47
2022-07-31T12:01:06.319Z,100569.97
2022-07-31T12:03:39.282Z,100566.75
2022-07-31T12:06:11.521Z,100562.53
2022-07-31T12:08:42.946Z,100552.47
2022-07-31T12:11:14.471Z,100554.09
2022-07-31T12:13:49.713Z,100560.72
2022-07-31T12:16:23.458Z,100570.56
2022-07-31T12:18:56.188Z,100585.81
2022-07-31T12:21:52.789Z,100582.25
2022-07-31T12:24:23.302Z,100590.56
2022-07-31T12:27:04.515Z,100581.47
2022-07-31T12:29:35.742Z,100579.75
2022-07-31T12:32:14.258Z,100567.75
2022-07-31T12:34:47.672Z,100574.38
2022-07-31T12:37:19.683Z,100573.25
2022-07-31T12:39:59.171Z,100571.56
2022-07-31T12:42:41.621Z,100575.75
2022-07-31T12:45:20.159Z,100580.28
2022-07-31T12:47:56.274Z,100584.84
2022-07-31T12:50:28.339Z,100590.63
2022-07-31T12:53:02.666Z,100594.69
2022-07-31T12:55:36.003Z,100597.53
2022-07-31T12:58:06.345Z,100590.34
2022-07-31T13:00:39.972Z,100592.69
2022-07-31T13:03:10.535Z,100588.16
2022-07-31T13:05:40.737Z,100600.56
2022-07-31T13:08:10.897Z,100598.16
2022-07-31T13:10:41.017Z,100592.78
2022-07-31T13:13:11.309Z,100594.44
2022-07-31T13:15:41.330Z,100598.72
2022-07-31T13:18:12.694Z,100606.78
2022-07-31T13:20:42.842Z,100604.63
2022-07-31T13:23:13.311Z,100602.53
2022-07-31T13:25:43.325Z,100609.50
2022-07-31T13:28:13.636Z,100620.41
2022-07-31T13:30:43.925Z,100626.03
2022-07-31T13:33:14.174Z,100637.00
2022-07-31T13:35:44.463Z,100651.03
2022-07-31T13:38:17.909Z,100661.56
2022-07-31T13:41:06.430Z,100669.38
2022-07-31T13:43:36.646Z,100676.34
2022-07-31T13:46:07.036Z,100676.28
2022-07-31T13:48:37.379Z,100682.75
2022-07-31T13:51:08.184Z,100690.63
2022-07-31T13:53:38.347Z,100697.25
2022-07-31T13:56:09.610Z,100689.72
2022-07-31T13:58:40.361Z,100696.19
2022-07-31T14:01:10.681Z,100687.84
2022-07-31T14:03:41.434Z,100695.19
2022-07-31T14:06:12.833Z,100700.94
2022-07-31T14:08:49.713Z,100699.31
2022-07-31T14:11:20.877Z,100699.63
2022-07-31T14:13:50.878Z,100708.31
2022-07-31T14:16:21.208Z,100712.22
2022-07-31T14:18:51.387Z,100716.09
2022-07-31T14:21:21.656Z,100716.38
2022-07-31T14:23:52.069Z,100720.47
2022-07-31T14:26:22.564Z,100728.84
2022-07-31T14:28:52.552Z,100729.72
2022-07-31T14:31:22.750Z,100734.50
2022-07-31T14:33:52.875Z,100736.28
2022-07-31T14:36:23.573Z,100745.91
2022-07-31T14:38:53.774Z,100747.59
2022-07-31T14:41:23.993Z,100751.19
2022-07-31T14:43:54.165Z,100753.50
2022-07-31T14:46:24.106Z,100755.50
2022-07-31T14:48:54.292Z,100753.50
2022-07-31T14:51:24.670Z,100762.59
2022-07-31T14:53:55.176Z,100759.22
2022-07-31T14:56:45.448Z,100761.34
2022-07-31T14:59:15.370Z,100768.03
2022-07-31T15:01:45.428Z,100762.81
2022-07-31T15:04:15.545Z,100768.22
2022-07-31T15:06:53.134Z,100769.38
2022-07-31T15:09:29.404Z,100767.22
2022-07-31T15:12:01.843Z,100769.19
2022-07-31T15:14:33.632Z,100763.97
2022-07-31T15:17:04.345Z,100765.47
2022-07-31T15:19:35.016Z,100761.53
2022-07-31T15:22:15.759Z,100762.50
2022-07-31T15:24:49.059Z,100765.56
2022-07-31T15:30:04.049Z,100764.94
2022-07-31T15:32:36.546Z,100769.00
2022-07-31T15:35:09.541Z,100772.22
2022-07-31T15:37:41.310Z,100770.63
2022-07-31T15:40:13.452Z,100770.25
2022-07-31T15:42:45.528Z,100759.34
2022-07-31T15:45:19.408Z,100763.56
2022-07-31T15:47:50.588Z,100758.06
2022-07-31T15:50:22.492Z,100761.44
2022-07-31T15:52:53.292Z,100760.63
2022-07-31T15:55:23.564Z,100754.94
2022-07-31T15:57:53.772Z,100753.31
2022-07-31T16:00:24.833Z,100750.25
2022-07-31T16:02:55.093Z,100751.38
2022-07-31T16:05:36.148Z,100749.59
2022-07-31T16:08:29.023Z,100744.09
2022-07-31T16:11:00.789Z,100745.22
2022-07-31T16:13:31.137Z,100734.19
2022-07-31T16:16:01.356Z,100740.22
2022-07-31T16:18:32.053Z,100742.47
2022-07-31T16:21:02.056Z,100740.66
2022-07-31T16:23:32.101Z,100732.06
2022-07-31T16:26:02.323Z,100735.94
2022-07-31T16:28:32.464Z,100730.44
2022-07-31T16:31:02.642Z,100731.44
2022-07-31T16:33:32.705Z,100732.06
2022-07-31T16:36:03.006Z,100739.03
2022-07-31T16:38:33.337Z,100733.81
2022-07-31T16:41:03.591Z,100731.91
2022-07-31T16:43:49.556Z,100726.19
2022-07-31T16:46:21.928Z,100722.00
2022-07-31T16:48:51.900Z,100720.34
2022-07-31T16:51:21.988Z,100715.16
2022-07-31T16:54:13.349Z,100718.91
2022-07-31T16:56:42.418Z,100716.78
2022-07-31T16:59:12.634Z,100712.88
2022-07-31T17:01:57.855Z,100718.09
2022-07-31T17:04:30.866Z,100709.00
2022-07-31T17:07:02.314Z,100703.81
2022-07-31T17:09:33.682Z,100700.22
2022-07-31T17:12:04.094Z,100690.03
2022-07-31T17:14:34.360Z,100692.78
2022-07-31T17:17:04.598Z,100691.16
2022-07-31T17:19:41.813Z,100689.69
2022-07-31T17:22:18.770Z,100671.50
2022-07-31T17:24:53.149Z,100683.69
2022-07-31T17:27:24.187Z,100675.72
2022-07-31T17:29:54.491Z,100657.22
2022-07-31T17:32:24.578Z,100656.75
2022-07-31T17:34:54.696Z,100665.50
2022-07-31T17:37:26.123Z,100665.69
2022-07-31T17:39:58.426Z,100661.63
2022-07-31T17:42:29.554Z,100659.06
2022-07-31T17:45:02.450Z,100656.28
2022-07-31T17:47:33.219Z,100654.66
2022-07-31T17:50:03.350Z,100652.72
2022-07-31T17:52:33.393Z,100651.28
2022-07-31T17:55:04.069Z,100650.59
2022-07-31T17:57:36.011Z,100642.19
2022-07-31T18:00:09.175Z,100646.41
2022-07-31T18:02:39.387Z,100648.03
2022-07-31T18:05:09.985Z,100645.91
2022-07-31T18:07:41.072Z,100638.28
2022-07-31T18:10:13.970Z,100639.41
2022-07-31T18:12:57.688Z,100631.78
2022-07-31T18:15:36.045Z,100627.22
2022-07-31T18:18:06.513Z,100627.22
2022-07-31T18:20:36.842Z,100628.06
2022-07-31T18:23:07.041Z,100627.56
2022-07-31T18:25:40.977Z,100626.69
2022-07-31T18:28:12.035Z,100630.91
2022-07-31T18:30:43.926Z,100629.28
2022-07-31T18:33:16.018Z,100628.16
2022-07-31T18:35:49.534Z,100627.66
2022-07-31T18:38:19.974Z,100630.91
2022-07-31T18:40:50.223Z,100634.97
2022-07-31T18:43:20.503Z,100633.22
2022-07-31T18:45:50.528Z,100631.13
2022-07-31T18:48:20.560Z,100632.41
2022-07-31T18:51:02.175Z,100638.25
2022-07-31T18:53:34.990Z,100629.78
2022-07-31T18:56:05.062Z,100629.19
2022-07-31T18:58:35.024Z,100626.53
2022-07-31T19:01:05.391Z,100630.41
2022-07-31T19:03:35.579Z,100630.75
2022-07-31T19:06:06.774Z,100630.75
2022-07-31T19:08:37.081Z,100629.63
2022-07-31T19:11:07.476Z,100623.44
2022-07-31T19:13:37.629Z,100612.88
2022-07-31T19:16:08.841Z,100615.16
2022-07-31T19:18:40.823Z,100617.44
2022-07-31T19:21:23.026Z,100607.72
2022-07-31T19:24:01.642Z,100616.97
2022-07-31T19:26:31.855Z,100609.81
2022-07-31T19:29:02.054Z,100608.53
2022-07-31T19:31:32.262Z,100615.50
2022-07-31T19:34:02.315Z,100610.69
2022-07-31T19:36:32.343Z,100597.72
2022-07-31T19:39:02.334Z,100594.97
2022-07-31T19:41:32.611Z,100592.38
2022-07-31T19:44:02.977Z,100581.16
2022-07-31T19:46:34.296Z,100581.16
2022-07-31T19:49:05.020Z,100575.44
2022-07-31T19:51:35.196Z,100569.91
2022-07-31T19:54:05.536Z,100564.13
2022-07-31T19:56:35.791Z,100561.38
2022-07-31T19:59:06.000Z,100554.19
2022-07-31T20:01:36.202Z,100550.00
2022-07-31T20:04:06.479Z,100548.38
2022-07-31T20:06:36.668Z,100547.41
2022-07-31T20:09:08.995Z,100543.97
2022-07-31T20:11:39.349Z,100542.56
2022-07-31T20:14:09.350Z,100539.91
2022-07-31T20:16:39.599Z,100539.59
2022-07-31T20:19:09.772Z,100530.38
2022-07-31T20:21:39.975Z,100531.53
2022-07-31T20:24:10.395Z,100521.28
2022-07-31T20:26:40.551Z,100521.91
2022-07-31T20:29:10.601Z,100518.03
2022-07-31T20:31:40.713Z,100513.47
2022-07-31T20:34:10.750Z,100517.84
2022-07-31T20:36:44.695Z,100517.03
2022-07-31T20:39:14.974Z,100511.84
2022-07-31T20:41:45.234Z,100508.09
2022-07-31T20:44:15.516Z,100513.31
2022-07-31T20:46:45.828Z,100515.25
2022-07-31T20:49:19.848Z,100507.31
2022-07-31T20:52:07.469Z,100505.19
2022-07-31T20:54:38.036Z,100502.44
2022-07-31T20:57:08.325Z,100505.53
2022-07-31T20:59:38.354Z,100499.19
2022-07-31T21:02:08.816Z,100495.13
2022-07-31T21:04:38.940Z,100488.63
2022-07-31T21:07:09.324Z,100486.38
2022-07-31T21:09:40.658Z,100486.38
2022-07-31T21:12:11.766Z,100482.97
2022-07-31T21:14:41.847Z,100482.97
2022-07-31T21:17:11.772Z,100483.47
2022-07-31T21:19:42.119Z,100486.53
2022-07-31T21:22:12.317Z,100484.09
2022-07-31T21:24:42.561Z,100489.63
2022-07-31T21:27:14.624Z,100484.41
2022-07-31T21:29:45.040Z,100485.22
2022-07-31T21:32:15.700Z,100496.75
2022-07-31T21:34:46.136Z,100495.13
2022-07-31T21:37:16.434Z,100495.13
2022-07-31T21:39:46.793Z,100497.88
2022-07-31T21:42:17.448Z,100499.50
2022-07-31T21:44:48.443Z,100496.25
2022-07-31T21:47:20.412Z,100499.50
2022-07-31T21:49:58.184Z,100506.16
2022-07-31T21:52:32.049Z,100514.94
2022-07-31T21:55:06.697Z,100519.59
2022-07-31T21:57:59.594Z,100511.50
2022-07-31T22:00:29.695Z,100515.22
2022-07-31T22:03:00.078Z,100510.84
2022-07-31T22:05:48.801Z,100515.56
2022-07-31T22:08:19.329Z,100511.19
2022-07-31T22:10:51.703Z,100506.78
2022-07-31T22:13:22.618Z,100505.16
2022-07-31T22:15:59.675Z,100512.44
2022-07-31T22:18:33.471Z,100507.59
2022-07-31T22:21:09.569Z,100520.72
2022-07-31T22:23:40.218Z,100523.34
2022-07-31T22:26:10.849Z,100514.72
2022-07-31T22:28:42.162Z,100511.97
2022-07-31T22:31:12.852Z,100516.69
2022-07-31T22:33:43.339Z,100514.09
2022-07-31T22:36:13.324Z,100523.84
2022-07-31T22:38:46.477Z,100525.28
2022-07-31T22:41:16.829Z,100521.72
2022-07-31T22:44:13.853Z,100529.81
2022-07-31T22:46:39.503Z,100532.25
2022-07-31T22:49:11.688Z,100527.22
2022-07-31T22:51:46.363Z,100522.69
2022-07-31T22:54:16.897Z,100519.59
2022-07-31T22:56:47.109Z,100529.31
2022-07-31T22:59:17.276Z,100534.47
